Gables by the Sea, Florida
Current Conditions -  °F | °C
As of 7:53 PM on Saturday 22 Nov 2014 (Local Time) from KTMB Reporting Station
Light Rain Light Rain  
Wind Chill: 77°   Ceiling: 3500
Heat Index: 79°   Visibility: 10mi
Dew Point: 71°   Wind: 15mph
Humidity: 82%   Direction: 110°ESE
Pressure: 30.08"   Gusts: NA
Location:  25.6668°N, 80.2981°W
Report Text: KTMB 230053Z 11013KT 10SM -RA FEW021 BKN035 OVC046 25/22 A3008 RMK AO2 RAB53 SLP185 P0000 T02500217
Loading
Personal Weather Stations






























Interactive Weather Map New forecast layout! Learn more

10-Day Weather Forecast

Advertisements
Track Severe Weather on mobile